createdAt,value
2019-01-20T00:00:29.295Z,50.8
2019-01-20T00:05:29.801Z,50.7
2019-01-20T00:10:30.301Z,50.6
2019-01-20T00:15:30.837Z,50.6
2019-01-20T00:20:31.337Z,50.5
2019-01-20T00:25:31.854Z,50.4
2019-01-20T00:30:32.408Z,50.4
2019-01-20T00:35:32.945Z,50.4
2019-01-20T00:40:33.485Z,50.2
2019-01-20T00:45:34.034Z,50.2
2019-01-20T00:50:34.575Z,50.1
2019-01-20T00:55:35.069Z,50.1
2019-01-20T01:00:35.657Z,50
2019-01-20T01:05:36.189Z,49.9
2019-01-20T01:10:36.660Z,49.9
2019-01-20T01:15:37.169Z,49.9
2019-01-20T01:20:37.632Z,49.8
2019-01-20T01:25:39.736Z,49.7
2019-01-20T01:30:41.855Z,49.7
2019-01-20T01:35:43.990Z,49.6
2019-01-20T01:40:45.594Z,49.5
2019-01-20T01:45:50.495Z,49.5
2019-01-20T01:50:52.612Z,49.4
2019-01-20T01:55:53.110Z,49.4
2019-01-20T02:00:53.578Z,49.3
2019-01-20T02:05:54.069Z,49.2
2019-01-20T02:10:54.585Z,49.2
2019-01-20T02:15:55.074Z,49.1
2019-01-20T02:20:57.187Z,49.1
2019-01-20T02:25:57.776Z,49
2019-01-20T02:30:58.266Z,48.9
2019-01-20T02:35:58.752Z,48.9
2019-01-20T02:41:00.342Z,48.8
2019-01-20T02:46:02.516Z,48.7
2019-01-20T02:51:07.262Z,48.7
2019-01-20T02:56:09.387Z,48.6
2019-01-20T03:01:11.630Z,48.6
2019-01-20T03:06:13.755Z,48.5
2019-01-20T03:11:15.853Z,48.4
2019-01-20T03:16:17.918Z,48.4
2019-01-20T03:21:18.399Z,48.3
2019-01-20T03:26:18.860Z,48.3
2019-01-20T03:31:19.363Z,48.2
2019-01-20T03:36:21.490Z,48.1
2019-01-20T03:41:23.607Z,48.1
2019-01-20T03:46:25.751Z,48
2019-01-20T03:51:27.838Z,47.9
2019-01-20T03:56:29.929Z,47.9
2019-01-20T04:01:32.097Z,47.8
2019-01-20T04:06:34.125Z,47.7
2019-01-20T04:11:36.181Z,47.7
2019-01-20T04:16:38.184Z,47.7
2019-01-20T04:21:40.240Z,47.6
2019-01-20T04:26:42.406Z,47.6
2019-01-20T04:31:44.538Z,47.4
2019-01-20T04:36:46.571Z,47.4
2019-01-20T04:41:48.632Z,47.4
2019-01-20T04:46:50.667Z,47.3
2019-01-20T04:51:55.412Z,47.2
2019-01-20T04:56:57.497Z,47.2
2019-01-20T05:01:59.721Z,47.1
2019-01-20T05:07:01.776Z,47.1
2019-01-20T05:12:03.772Z,47
2019-01-20T05:17:05.838Z,46.9
2019-01-20T05:22:07.946Z,46.9
2019-01-20T05:27:09.968Z,46.8
2019-01-20T05:32:12.061Z,46.8
2019-01-20T05:37:14.249Z,46.7
2019-01-20T05:42:16.304Z,46.7
2019-01-20T05:47:18.411Z,46.6
2019-01-20T05:52:20.451Z,46.6
2019-01-20T05:57:23.555Z,46.5
2019-01-20T06:02:29.600Z,46.4
2019-01-20T06:07:31.616Z,46.4
2019-01-20T06:12:33.667Z,46.3
2019-01-20T06:17:35.971Z,46.2
2019-01-20T06:22:37.937Z,46.2
2019-01-20T06:27:40.120Z,46.2
2019-01-20T06:32:42.127Z,46.1
2019-01-20T06:37:44.151Z,46.1
2019-01-20T06:42:46.157Z,46
2019-01-20T06:47:51.148Z,45.9
2019-01-20T06:52:53.235Z,45.9
2019-01-20T06:57:56.163Z,45.8
2019-01-20T07:02:58.240Z,45.8
2019-01-20T07:08:00.234Z,45.7
2019-01-20T07:13:08.852Z,45.6
2019-01-20T07:18:12.287Z,45.6
2019-01-20T07:23:14.300Z,45.5
2019-01-20T07:28:16.305Z,45.4
2019-01-20T07:33:18.390Z,45.4
2019-01-20T07:38:20.356Z,45.4
2019-01-20T07:43:25.086Z,45.3
2019-01-20T07:48:27.084Z,45.2
2019-01-20T07:53:29.043Z,45.2
2019-01-20T07:58:31.015Z,45.1
2019-01-20T08:03:33.017Z,45.1
2019-01-20T08:08:34.947Z,45
2019-01-20T08:13:37.542Z,45
2019-01-20T08:18:39.530Z,44.9
2019-01-20T08:23:41.468Z,44.9
2019-01-20T08:28:46.386Z,44.8
2019-01-20T08:33:48.320Z,44.7
2019-01-20T08:38:52.760Z,44.7
2019-01-20T08:43:54.703Z,44.6
2019-01-20T08:48:56.731Z,44.6
2019-01-20T08:53:59.767Z,44.6
2019-01-20T08:59:01.697Z,44.5
2019-01-20T09:04:03.678Z,44.4
2019-01-20T09:09:05.610Z,44.4
2019-01-20T09:14:10.556Z,44.4
2019-01-20T09:19:12.526Z,44.3
2019-01-20T09:24:14.518Z,44.2
2019-01-20T09:29:16.547Z,44.2
2019-01-20T09:34:18.472Z,44.2
2019-01-20T09:39:21.089Z,44.1
2019-01-20T09:44:23.721Z,44.1
2019-01-20T09:49:25.653Z,44
2019-01-20T09:54:27.617Z,43.9
2019-01-20T09:59:30.654Z,43.9
2019-01-20T10:04:33.607Z,44.9
2019-01-20T10:09:39.170Z,46.6
2019-01-20T10:14:41.198Z,47.9
2019-01-20T10:19:43.267Z,48.9
2019-01-20T10:24:45.435Z,49.8
2019-01-20T10:29:47.569Z,50.6
2019-01-20T10:34:50.494Z,51.4
2019-01-20T10:39:53.449Z,51.9
2019-01-20T10:44:56.764Z,52.4
2019-01-20T10:49:57.328Z,52.9
2019-01-20T10:54:57.835Z,53.3
2019-01-20T10:59:58.411Z,53.4
2019-01-20T11:04:59.382Z,53.6
2019-01-20T11:10:02.941Z,53.6
2019-01-20T11:15:06.572Z,53.8
2019-01-20T11:20:07.112Z,53.8
2019-01-20T11:25:07.616Z,53.7
2019-01-20T11:30:08.227Z,53.9
2019-01-20T11:35:13.512Z,53.9
2019-01-20T11:40:19.506Z,53.9
2019-01-20T11:45:22.723Z,53.9
2019-01-20T11:50:23.282Z,53.8
2019-01-20T11:55:23.866Z,53.7
2019-01-20T12:00:24.940Z,53.9
2019-01-20T12:05:25.593Z,53.9
2019-01-20T12:10:27.026Z,53.9
2019-01-20T12:15:27.628Z,53.8
2019-01-20T12:20:28.243Z,53.8
2019-01-20T12:25:28.803Z,53.3
2019-01-20T12:30:29.323Z,50.2
2019-01-20T12:35:31.501Z,48.1
2019-01-20T12:40:33.805Z,46.2
2019-01-20T12:45:35.825Z,46.6
2019-01-20T12:50:37.890Z,47.6
2019-01-20T12:55:42.912Z,49
2019-01-20T13:00:48.138Z,50.9
2019-01-20T13:05:51.037Z,52
2019-01-20T13:10:51.591Z,52.5
2019-01-20T13:15:55.157Z,52.7
2019-01-20T13:20:55.648Z,52.9
2019-01-20T13:25:56.342Z,52.9
2019-01-20T13:30:56.858Z,52.9
2019-01-20T13:36:06.914Z,52.9
2019-01-20T13:41:09.183Z,52.9
2019-01-20T13:46:19.428Z,52.8
2019-01-20T13:51:19.970Z,52.7
2019-01-20T13:56:23.212Z,52.7
2019-01-20T14:01:26.643Z,52.7
2019-01-20T14:06:27.615Z,52.6
2019-01-20T14:11:28.145Z,52.6
2019-01-20T14:16:28.723Z,52.5
2019-01-20T14:21:30.370Z,52.4
2019-01-20T14:26:30.927Z,52.4
2019-01-20T14:31:32.392Z,52.4
2019-01-20T14:36:32.926Z,52.3
2019-01-20T14:41:36.516Z,52.2
2019-01-20T14:46:37.039Z,52.1
2019-01-20T14:51:38.486Z,52.1
2019-01-20T14:56:42.042Z,52
2019-01-20T15:01:47.120Z,51.9
2019-01-20T15:06:49.252Z,51.9
2019-01-20T15:11:57.216Z,51.7
2019-01-20T15:16:59.237Z,51.6
2019-01-20T15:22:01.443Z,51.6
2019-01-20T15:27:03.684Z,51.5
2019-01-20T15:32:05.805Z,51.4
2019-01-20T15:37:10.595Z,51.4
2019-01-20T15:42:12.703Z,51.2
2019-01-20T15:47:14.743Z,51.2
2019-01-20T15:52:16.780Z,51.1
2019-01-20T15:57:18.832Z,51.1
2019-01-20T16:02:24.803Z,50.9
2019-01-20T16:07:26.951Z,50.9
2019-01-20T16:12:29.841Z,50.8
2019-01-20T16:17:32.858Z,50.8
2019-01-20T16:22:35.961Z,50.7
2019-01-20T16:27:38.126Z,50.6
2019-01-20T16:32:40.310Z,50.5
2019-01-20T16:37:42.442Z,50.4
2019-01-20T16:42:46.104Z,50.4
2019-01-20T16:47:48.427Z,50.3
2019-01-20T16:52:54.519Z,50.2
2019-01-20T16:57:56.874Z,50.1
2019-01-20T17:02:59.013Z,50.1
2019-01-20T17:08:01.196Z,50
2019-01-20T17:13:03.303Z,49.9
2019-01-20T17:18:05.479Z,49.8
2019-01-20T17:23:07.586Z,49.7
2019-01-20T17:28:13.569Z,49.6
2019-01-20T17:33:16.340Z,49.6
2019-01-20T17:38:21.442Z,49.5
2019-01-20T17:43:24.327Z,49.4
2019-01-20T17:48:27.282Z,49.4
2019-01-20T17:53:31.379Z,49.2
2019-01-20T17:58:33.442Z,49.2
2019-01-20T18:03:35.487Z,49.1
2019-01-20T18:08:37.729Z,49.1
2019-01-20T18:13:42.940Z,48.9
2019-01-20T18:18:44.959Z,48.9
2019-01-20T18:23:49.999Z,48.8
2019-01-20T18:28:54.974Z,48.7
2019-01-20T18:34:17.845Z,48.7
2019-01-20T18:39:19.879Z,48.6
2019-01-20T18:44:22.602Z,48.5
2019-01-20T18:49:26.974Z,48.4
2019-01-20T18:54:33.646Z,48.4
2019-01-20T18:59:36.589Z,48.3
2019-01-20T19:04:38.625Z,48.2
2019-01-20T19:09:40.663Z,48.1
2019-01-20T19:14:42.925Z,48.1
2019-01-20T19:19:44.926Z,48
2019-01-20T19:24:46.920Z,47.9
2019-01-20T19:29:48.895Z,47.8
2019-01-20T19:34:50.903Z,47.7
2019-01-20T19:39:53.858Z,47.7
2019-01-20T19:44:55.858Z,47.6
2019-01-20T19:50:00.748Z,47.6
2019-01-20T19:55:05.378Z,47.5
2019-01-20T20:00:08.372Z,47.3
2019-01-20T20:05:10.299Z,47.1
2019-01-20T20:10:17.777Z,47
2019-01-20T20:15:19.949Z,46.9
2019-01-20T20:20:23.105Z,46.8
2019-01-20T20:25:36.091Z,46.7
2019-01-20T20:30:38.366Z,46.7
2019-01-20T20:35:44.127Z,46.6
2019-01-20T20:40:51.667Z,46.6
2019-01-20T20:45:54.409Z,46.5
2019-01-20T20:50:56.342Z,46.4
2019-01-20T20:55:59.236Z,46.2
2019-01-20T21:01:04.259Z,46.2
2019-01-20T21:06:06.198Z,46.1
2019-01-20T21:11:08.185Z,46.1
2019-01-20T21:16:11.273Z,46
2019-01-20T21:21:13.240Z,45.9
2019-01-20T21:26:16.368Z,45.9
2019-01-20T21:31:18.408Z,45.8
2019-01-20T21:36:21.518Z,45.8
2019-01-20T21:41:26.484Z,45.7
2019-01-20T21:46:28.460Z,45.6
2019-01-20T21:51:30.410Z,45.5
2019-01-20T21:56:32.324Z,45.5
2019-01-20T22:01:34.225Z,45.4
2019-01-20T22:06:36.727Z,45.3
2019-01-20T22:11:41.651Z,45.3
2019-01-20T22:16:52.467Z,45.2
2019-01-20T22:21:54.836Z,45.1
2019-01-20T22:26:56.862Z,45.1
2019-01-20T22:31:58.808Z,45
2019-01-20T22:37:01.790Z,44.9
2019-01-20T22:42:08.832Z,44.9
2019-01-20T22:47:10.825Z,44.9
2019-01-20T22:52:12.786Z,44.7
2019-01-20T22:57:17.389Z,44.7
2019-01-20T23:02:19.271Z,44.7
2019-01-20T23:07:21.207Z,44.6
2019-01-20T23:12:23.138Z,44.5
2019-01-20T23:17:25.910Z,44.5
2019-01-20T23:22:27.790Z,44.4
2019-01-20T23:27:29.755Z,44.4
2019-01-20T23:32:31.681Z,44.3
2019-01-20T23:37:36.881Z,44.2
2019-01-20T23:42:41.755Z,44.2
2019-01-20T23:47:43.822Z,44.1
2019-01-20T23:52:45.812Z,44.1
2019-01-20T23:57:49.714Z,44
